Airport View

Enter AWOS ICAO identifier for current METAR.

ex. KFNL

KLMO 192355Z AUTO 00000KT 10SM BKN060 BKN075 BKN085 12/03 A2997 RMK AO2 T01160032

20 Oct 2020 00:16

Frequency: 120.000

Phone: 303-684-7545

Other Area AWOS: KBDU - KEIK - KBJC - KFNL

TAF KBJC 192323Z 2000/2024 35008KT P6SM SCT120 BKN200 FM200300 29008KT P6SM FEW220 FM200900 23006KT P6SM FEW220 FM201300 18005KT P6SM FEW220 FM201700 31012KT P6SM SCT220 FM202300 06012KT P6SM SCT220